sensor_id;sensor_type;location;lat;lon;timestamp;temperature;humidity
21811;DHT22;11067;48.788;9.208;2023-08-07T00:01:29;13.10;99.90
21811;DHT22;11067;48.788;9.208;2023-08-07T00:03:55;13.10;99.90
21811;DHT22;11067;48.788;9.208;2023-08-07T00:06:20;13.10;99.90
21811;DHT22;11067;48.788;9.208;2023-08-07T00:08:46;13.10;99.90
21811;DHT22;11067;48.788;9.208;2023-08-07T00:11:11;13.10;99.90
21811;DHT22;11067;48.788;9.208;2023-08-07T00:13:37;13.10;99.90
21811;DHT22;11067;48.788;9.208;2023-08-07T00:16:03;13.00;99.90
21811;DHT22;11067;48.788;9.208;2023-08-07T00:18:29;13.10;99.90
21811;DHT22;11067;48.788;9.208;2023-08-07T00:20:55;13.10;99.90
21811;DHT22;11067;48.788;9.208;2023-08-07T00:23:20;13.10;99.90
21811;DHT22;11067;48.788;9.208;2023-08-07T00:25:46;13.10;99.90
21811;DHT22;11067;48.788;9.208;2023-08-07T00:28:11;13.10;99.90
21811;DHT22;11067;48.788;9.208;2023-08-07T00:30:37;13.20;99.90
21811;DHT22;11067;48.788;9.208;2023-08-07T00:33:02;13.10;99.90
21811;DHT22;11067;48.788;9.208;2023-08-07T00:35:28;13.00;99.90
21811;DHT22;11067;48.788;9.208;2023-08-07T00:37:53;13.00;99.90
21811;DHT22;11067;48.788;9.208;2023-08-07T00:40:19;13.00;99.90
21811;DHT22;11067;48.788;9.208;2023-08-07T00:42:44;13.10;99.90
21811;DHT22;11067;48.788;9.208;2023-08-07T00:45:10;13.20;99.90
21811;DHT22;11067;48.788;9.208;2023-08-07T00:47:36;13.10;99.90
21811;DHT22;11067;48.788;9.208;2023-08-07T00:50:04;13.10;99.90
21811;DHT22;11067;48.788;9.208;2023-08-07T00:52:30;13.30;99.90
21811;DHT22;11067;48.788;9.208;2023-08-07T00:54:56;13.20;99.90
21811;DHT22;11067;48.788;9.208;2023-08-07T00:57:22;13.20;99.90
21811;DHT22;11067;48.788;9.208;2023-08-07T00:59:50;13.20;99.90
21811;DHT22;11067;48.788;9.208;2023-08-07T01:02:15;13.20;99.90
21811;DHT22;11067;48.788;9.208;2023-08-07T01:04:41;13.10;99.90
21811;DHT22;11067;48.788;9.208;2023-08-07T01:07:06;13.20;99.90
21811;DHT22;11067;48.788;9.208;2023-08-07T01:09:32;13.20;99.90
21811;DHT22;11067;48.788;9.208;2023-08-07T01:12:20;13.20;99.90
21811;DHT22;11067;48.788;9.208;2023-08-07T01:14:52;13.20;99.90
21811;DHT22;11067;48.788;9.208;2023-08-07T01:17:22;13.20;99.90
21811;DHT22;11067;48.788;9.208;2023-08-07T01:19:50;13.20;99.90
21811;DHT22;11067;48.788;9.208;2023-08-07T01:22:18;13.10;99.90
21811;DHT22;11067;48.788;9.208;2023-08-07T01:24:49;13.10;99.90
21811;DHT22;11067;48.788;9.208;2023-08-07T01:27:37;13.10;99.90
21811;DHT22;11067;48.788;9.208;2023-08-07T01:35:34;13.30;99.90
21811;DHT22;11067;48.788;9.208;2023-08-07T01:38:01;13.30;99.90
21811;DHT22;11067;48.788;9.208;2023-08-07T01:40:28;13.20;99.90
21811;DHT22;11067;48.788;9.208;2023-08-07T01:42:54;13.30;99.90
21811;DHT22;11067;48.788;9.208;2023-08-07T01:45:25;13.30;99.90
21811;DHT22;11067;48.788;9.208;2023-08-07T01:47:51;13.30;99.90
21811;DHT22;11067;48.788;9.208;2023-08-07T01:50:18;13.30;99.90
21811;DHT22;11067;48.788;9.208;2023-08-07T01:52:45;13.30;99.90
21811;DHT22;11067;48.788;9.208;2023-08-07T01:55:11;13.30;99.90
21811;DHT22;11067;48.788;9.208;2023-08-07T01:57:36;13.20;99.90
21811;DHT22;11067;48.788;9.208;2023-08-07T02:00:02;13.20;99.90
21811;DHT22;11067;48.788;9.208;2023-08-07T02:02:29;13.30;99.90
21811;DHT22;11067;48.788;9.208;2023-08-07T02:04:54;13.30;99.90
21811;DHT22;11067;48.788;9.208;2023-08-07T02:07:20;13.20;99.90
21811;DHT22;11067;48.788;9.208;2023-08-07T02:09:45;13.30;99.90
21811;DHT22;11067;48.788;9.208;2023-08-07T02:12:11;13.30;99.90
21811;DHT22;11067;48.788;9.208;2023-08-07T02:14:36;13.30;99.90
21811;DHT22;11067;48.788;9.208;2023-08-07T02:17:02;13.20;99.90
21811;DHT22;11067;48.788;9.208;2023-08-07T02:19:27;13.30;99.90
21811;DHT22;11067;48.788;9.208;2023-08-07T02:21:53;13.30;99.90
21811;DHT22;11067;48.788;9.208;2023-08-07T02:24:18;13.30;99.90
21811;DHT22;11067;48.788;9.208;2023-08-07T02:26:45;13.30;99.90
21811;DHT22;11067;48.788;9.208;2023-08-07T02:29:11;13.30;99.90
21811;DHT22;11067;48.788;9.208;2023-08-07T02:31:36;13.30;99.90
21811;DHT22;11067;48.788;9.208;2023-08-07T02:34:02;13.20;99.90
21811;DHT22;11067;48.788;9.208;2023-08-07T02:36:27;13.20;99.90
21811;DHT22;11067;48.788;9.208;2023-08-07T02:38:53;13.20;99.90
21811;DHT22;11067;48.788;9.208;2023-08-07T02:41:18;13.20;99.90
21811;DHT22;11067;48.788;9.208;2023-08-07T02:43:44;13.10;99.90
21811;DHT22;11067;48.788;9.208;2023-08-07T02:46:10;13.10;99.90
21811;DHT22;11067;48.788;9.208;2023-08-07T02:48:36;13.00;99.90
21811;DHT22;11067;48.788;9.208;2023-08-07T02:51:01;13.00;99.90
21811;DHT22;11067;48.788;9.208;2023-08-07T02:53:27;12.90;99.90
21811;DHT22;11067;48.788;9.208;2023-08-07T02:55:52;13.00;99.90
21811;DHT22;11067;48.788;9.208;2023-08-07T02:58:18;13.10;99.90
21811;DHT22;11067;48.788;9.208;2023-08-07T03:00:43;13.00;99.90
21811;DHT22;11067;48.788;9.208;2023-08-07T03:03:09;13.10;99.90
21811;DHT22;11067;48.788;9.208;2023-08-07T03:05:34;13.00;99.90
21811;DHT22;11067;48.788;9.208;2023-08-07T03:08:00;13.00;99.90
21811;DHT22;11067;48.788;9.208;2023-08-07T03:10:26;13.00;99.90
21811;DHT22;11067;48.788;9.208;2023-08-07T03:12:51;13.10;99.90
21811;DHT22;11067;48.788;9.208;2023-08-07T03:15:17;13.00;99.90
21811;DHT22;11067;48.788;9.208;2023-08-07T03:17:43;13.00;99.90
21811;DHT22;11067;48.788;9.208;2023-08-07T03:20:08;13.00;99.90
21811;DHT22;11067;48.788;9.208;2023-08-07T03:22:34;13.00;99.90
21811;DHT22;11067;48.788;9.208;2023-08-07T03:25:00;13.00;99.90
21811;DHT22;11067;48.788;9.208;2023-08-07T03:27:26;13.00;99.90
21811;DHT22;11067;48.788;9.208;2023-08-07T03:29:51;13.00;99.90
21811;DHT22;11067;48.788;9.208;2023-08-07T03:32:17;12.90;99.90
21811;DHT22;11067;48.788;9.208;2023-08-07T03:34:42;13.00;99.90
21811;DHT22;11067;48.788;9.208;2023-08-07T03:37:08;13.00;99.90
21811;DHT22;11067;48.788;9.208;2023-08-07T03:39:33;13.00;99.90
21811;DHT22;11067;48.788;9.208;2023-08-07T03:41:59;12.90;99.90
21811;DHT22;11067;48.788;9.208;2023-08-07T03:44:24;12.90;99.90
21811;DHT22;11067;48.788;9.208;2023-08-07T03:46:50;13.00;99.90
21811;DHT22;11067;48.788;9.208;2023-08-07T03:49:16;12.90;99.90
21811;DHT22;11067;48.788;9.208;2023-08-07T03:51:42;13.00;99.90
21811;DHT22;11067;48.788;9.208;2023-08-07T03:54:08;13.00;99.90
21811;DHT22;11067;48.788;9.208;2023-08-07T03:56:33;12.90;99.90
21811;DHT22;11067;48.788;9.208;2023-08-07T03:59:02;12.90;99.90
21811;DHT22;11067;48.788;9.208;2023-08-07T04:01:27;12.90;99.90
21811;DHT22;11067;48.788;9.208;2023-08-07T04:03:53;13.00;99.90
21811;DHT22;11067;48.788;9.208;2023-08-07T04:06:18;12.90;99.90
21811;DHT22;11067;48.788;9.208;2023-08-07T04:08:46;13.00;99.90
21811;DHT22;11067;48.788;9.208;2023-08-07T04:11:12;12.90;99.90
21811;DHT22;11067;48.788;9.208;2023-08-07T04:13:37;12.90;99.90
21811;DHT22;11067;48.788;9.208;2023-08-07T04:16:03;12.90;99.90
21811;DHT22;11067;48.788;9.208;2023-08-07T04:18:30;12.80;99.90
21811;DHT22;11067;48.788;9.208;2023-08-07T04:20:57;12.80;99.90
21811;DHT22;11067;48.788;9.208;2023-08-07T04:23:23;12.80;99.90
21811;DHT22;11067;48.788;9.208;2023-08-07T04:25:49;12.90;99.90
21811;DHT22;11067;48.788;9.208;2023-08-07T04:28:15;12.90;99.90
21811;DHT22;11067;48.788;9.208;2023-08-07T04:30:42;12.90;99.90
21811;DHT22;11067;48.788;9.208;2023-08-07T04:33:08;12.90;99.90
21811;DHT22;11067;48.788;9.208;2023-08-07T04:35:34;12.90;99.90
21811;DHT22;11067;48.788;9.208;2023-08-07T04:38:00;12.90;99.90
21811;DHT22;11067;48.788;9.208;2023-08-07T04:40:26;12.90;99.90
21811;DHT22;11067;48.788;9.208;2023-08-07T04:42:51;12.90;99.90
21811;DHT22;11067;48.788;9.208;2023-08-07T04:45:17;12.90;99.90
21811;DHT22;11067;48.788;9.208;2023-08-07T04:47:42;13.00;99.90
21811;DHT22;11067;48.788;9.208;2023-08-07T04:50:08;13.00;99.90
21811;DHT22;11067;48.788;9.208;2023-08-07T04:52:35;13.00;99.90
21811;DHT22;11067;48.788;9.208;2023-08-07T04:55:00;13.00;99.90
21811;DHT22;11067;48.788;9.208;2023-08-07T04:57:26;13.10;99.90
21811;DHT22;11067;48.788;9.208;2023-08-07T04:59:52;13.10;99.90
21811;DHT22;11067;48.788;9.208;2023-08-07T05:02:18;13.10;99.90
21811;DHT22;11067;48.788;9.208;2023-08-07T05:04:44;13.10;99.90
21811;DHT22;11067;48.788;9.208;2023-08-07T05:07:09;13.20;99.90
21811;DHT22;11067;48.788;9.208;2023-08-07T05:09:35;13.30;99.90
21811;DHT22;11067;48.788;9.208;2023-08-07T05:12:01;13.20;99.90
21811;DHT22;11067;48.788;9.208;2023-08-07T05:14:28;13.30;99.90
21811;DHT22;11067;48.788;9.208;2023-08-07T05:16:54;13.20;99.90
21811;DHT22;11067;48.788;9.208;2023-08-07T05:19:19;13.30;99.90
21811;DHT22;11067;48.788;9.208;2023-08-07T05:21:45;13.30;99.90
21811;DHT22;11067;48.788;9.208;2023-08-07T05:24:15;13.40;99.90
21811;DHT22;11067;48.788;9.208;2023-08-07T05:26:41;13.40;99.90
21811;DHT22;11067;48.788;9.208;2023-08-07T05:29:06;13.40;99.90
21811;DHT22;11067;48.788;9.208;2023-08-07T05:31:33;13.40;99.90
21811;DHT22;11067;48.788;9.208;2023-08-07T05:33:58;13.40;99.90
21811;DHT22;11067;48.788;9.208;2023-08-07T05:36:24;13.60;99.90
21811;DHT22;11067;48.788;9.208;2023-08-07T05:38:49;13.60;99.90
21811;DHT22;11067;48.788;9.208;2023-08-07T05:41:15;13.60;99.90
21811;DHT22;11067;48.788;9.208;2023-08-07T05:43:41;13.60;99.90
21811;DHT22;11067;48.788;9.208;2023-08-07T05:46:07;13.60;99.90
21811;DHT22;11067;48.788;9.208;2023-08-07T05:48:32;13.70;99.90
21811;DHT22;11067;48.788;9.208;2023-08-07T05:50:58;13.80;99.90
21811;DHT22;11067;48.788;9.208;2023-08-07T05:53:23;13.80;99.90
21811;DHT22;11067;48.788;9.208;2023-08-07T05:55:49;13.90;99.90
21811;DHT22;11067;48.788;9.208;2023-08-07T05:58:15;13.90;99.90
21811;DHT22;11067;48.788;9.208;2023-08-07T06:00:40;13.90;99.90
21811;DHT22;11067;48.788;9.208;2023-08-07T06:03:06;14.00;99.90
21811;DHT22;11067;48.788;9.208;2023-08-07T06:05:31;14.10;99.90
21811;DHT22;11067;48.788;9.208;2023-08-07T06:07:57;14.10;99.90
21811;DHT22;11067;48.788;9.208;2023-08-07T06:10:22;14.10;99.90
21811;DHT22;11067;48.788;9.208;2023-08-07T06:12:48;14.10;99.90
21811;DHT22;11067;48.788;9.208;2023-08-07T06:15:13;14.10;99.90
21811;DHT22;11067;48.788;9.208;2023-08-07T06:17:39;14.20;99.90
21811;DHT22;11067;48.788;9.208;2023-08-07T06:20:07;14.30;99.90
21811;DHT22;11067;48.788;9.208;2023-08-07T06:22:34;14.30;99.90
21811;DHT22;11067;48.788;9.208;2023-08-07T06:25:00;14.40;99.90
21811;DHT22;11067;48.788;9.208;2023-08-07T06:27:25;14.50;99.90
21811;DHT22;11067;48.788;9.208;2023-08-07T06:29:51;14.50;99.90
21811;DHT22;11067;48.788;9.208;2023-08-07T06:32:16;14.60;99.90
21811;DHT22;11067;48.788;9.208;2023-08-07T06:34:43;14.60;99.90
21811;DHT22;11067;48.788;9.208;2023-08-07T06:37:09;14.60;99.90
21811;DHT22;11067;48.788;9.208;2023-08-07T06:39:34;14.60;99.90
21811;DHT22;11067;48.788;9.208;2023-08-07T06:42:00;14.70;99.90
21811;DHT22;11067;48.788;9.208;2023-08-07T06:44:26;14.60;99.90
21811;DHT22;11067;48.788;9.208;2023-08-07T06:46:51;14.50;99.90
21811;DHT22;11067;48.788;9.208;2023-08-07T06:49:17;14.60;99.90
21811;DHT22;11067;48.788;9.208;2023-08-07T06:51:43;14.80;99.90
21811;DHT22;11067;48.788;9.208;2023-08-07T06:54:09;14.80;99.90
21811;DHT22;11067;48.788;9.208;2023-08-07T06:56:34;14.90;99.90
21811;DHT22;11067;48.788;9.208;2023-08-07T06:59:00;14.90;99.90
21811;DHT22;11067;48.788;9.208;2023-08-07T07:01:25;15.10;99.90
21811;DHT22;11067;48.788;9.208;2023-08-07T07:03:51;15.20;99.90
21811;DHT22;11067;48.788;9.208;2023-08-07T07:06:18;14.90;99.90
21811;DHT22;11067;48.788;9.208;2023-08-07T07:08:44;15.20;99.90
21811;DHT22;11067;48.788;9.208;2023-08-07T07:11:09;15.40;99.90
21811;DHT22;11067;48.788;9.208;2023-08-07T07:13:35;15.40;99.90
21811;DHT22;11067;48.788;9.208;2023-08-07T07:16:01;15.90;99.90
21811;DHT22;11067;48.788;9.208;2023-08-07T07:18:26;15.90;99.90
21811;DHT22;11067;48.788;9.208;2023-08-07T07:20:58;15.80;99.90
21811;DHT22;11067;48.788;9.208;2023-08-07T07:23:25;16.10;99.90
21811;DHT22;11067;48.788;9.208;2023-08-07T07:25:51;15.80;99.90
21811;DHT22;11067;48.788;9.208;2023-08-07T07:28:16;15.80;99.90
21811;DHT22;11067;48.788;9.208;2023-08-07T07:30:42;15.90;99.90
21811;DHT22;11067;48.788;9.208;2023-08-07T07:33:07;15.60;99.90
21811;DHT22;11067;48.788;9.208;2023-08-07T07:35:37;16.00;99.90
21811;DHT22;11067;48.788;9.208;2023-08-07T07:38:03;16.00;99.90
21811;DHT22;11067;48.788;9.208;2023-08-07T07:40:29;15.60;99.90
21811;DHT22;11067;48.788;9.208;2023-08-07T07:42:54;15.80;99.90
21811;DHT22;11067;48.788;9.208;2023-08-07T07:45:20;15.90;99.90
21811;DHT22;11067;48.788;9.208;2023-08-07T07:47:45;15.80;99.90
21811;DHT22;11067;48.788;9.208;2023-08-07T07:50:11;15.80;99.90
21811;DHT22;11067;48.788;9.208;2023-08-07T07:52:38;16.10;99.90
21811;DHT22;11067;48.788;9.208;2023-08-07T07:55:04;15.80;99.90
21811;DHT22;11067;48.788;9.208;2023-08-07T07:57:30;15.90;99.90
21811;DHT22;11067;48.788;9.208;2023-08-07T07:59:56;16.30;99.90
21811;DHT22;11067;48.788;9.208;2023-08-07T08:02:22;16.30;99.90
21811;DHT22;11067;48.788;9.208;2023-08-07T08:04:50;16.30;99.90
21811;DHT22;11067;48.788;9.208;2023-08-07T08:07:16;16.50;99.90
21811;DHT22;11067;48.788;9.208;2023-08-07T08:09:41;16.70;99.90
21811;DHT22;11067;48.788;9.208;2023-08-07T08:12:07;16.50;99.90
21811;DHT22;11067;48.788;9.208;2023-08-07T08:14:33;16.10;99.90
21811;DHT22;11067;48.788;9.208;2023-08-07T08:16:59;16.10;99.90
21811;DHT22;11067;48.788;9.208;2023-08-07T08:19:24;16.00;99.90
21811;DHT22;11067;48.788;9.208;2023-08-07T08:21:50;16.00;99.90
21811;DHT22;11067;48.788;9.208;2023-08-07T08:24:15;16.30;99.90
21811;DHT22;11067;48.788;9.208;2023-08-07T08:26:41;15.90;99.90
21811;DHT22;11067;48.788;9.208;2023-08-07T08:29:06;16.00;99.90
21811;DHT22;11067;48.788;9.208;2023-08-07T08:31:33;15.80;99.90
21811;DHT22;11067;48.788;9.208;2023-08-07T08:33:59;15.90;99.90
21811;DHT22;11067;48.788;9.208;2023-08-07T08:36:25;15.90;99.90
21811;DHT22;11067;48.788;9.208;2023-08-07T08:38:50;16.20;99.90
21811;DHT22;11067;48.788;9.208;2023-08-07T08:41:17;16.30;99.90
21811;DHT22;11067;48.788;9.208;2023-08-07T08:43:45;16.40;99.90
21811;DHT22;11067;48.788;9.208;2023-08-07T08:46:11;16.40;99.90
21811;DHT22;11067;48.788;9.208;2023-08-07T08:48:39;16.40;99.90
21811;DHT22;11067;48.788;9.208;2023-08-07T08:51:06;16.60;99.90
21811;DHT22;11067;48.788;9.208;2023-08-07T08:53:33;16.50;99.90
21811;DHT22;11067;48.788;9.208;2023-08-07T08:56:00;16.50;99.90
21811;DHT22;11067;48.788;9.208;2023-08-07T08:58:27;16.60;99.90
21811;DHT22;11067;48.788;9.208;2023-08-07T09:00:53;16.90;99.90
21811;DHT22;11067;48.788;9.208;2023-08-07T09:03:19;16.80;99.90
21811;DHT22;11067;48.788;9.208;2023-08-07T09:05:47;17.10;99.90
21811;DHT22;11067;48.788;9.208;2023-08-07T09:08:12;16.90;99.90
21811;DHT22;11067;48.788;9.208;2023-08-07T09:10:39;16.70;99.90
21811;DHT22;11067;48.788;9.208;2023-08-07T09:13:09;16.90;99.90
21811;DHT22;11067;48.788;9.208;2023-08-07T09:15:37;16.60;99.90
21811;DHT22;11067;48.788;9.208;2023-08-07T09:18:06;17.10;99.90
21811;DHT22;11067;48.788;9.208;2023-08-07T09:20:37;17.60;99.90
21811;DHT22;11067;48.788;9.208;2023-08-07T09:23:05;17.50;99.90
21811;DHT22;11067;48.788;9.208;2023-08-07T09:25:31;17.10;99.90
21811;DHT22;11067;48.788;9.208;2023-08-07T09:27:57;17.10;99.90
21811;DHT22;11067;48.788;9.208;2023-08-07T09:30:27;17.40;99.90
21811;DHT22;11067;48.788;9.208;2023-08-07T09:32:59;17.30;99.90
21811;DHT22;11067;48.788;9.208;2023-08-07T09:35:26;17.50;99.90
21811;DHT22;11067;48.788;9.208;2023-08-07T09:37:52;17.50;99.90
21811;DHT22;11067;48.788;9.208;2023-08-07T09:40:19;17.40;99.90
21811;DHT22;11067;48.788;9.208;2023-08-07T09:42:45;17.30;99.90
21811;DHT22;11067;48.788;9.208;2023-08-07T09:45:26;17.30;99.90
21811;DHT22;11067;48.788;9.208;2023-08-07T09:48:05;17.40;99.90
21811;DHT22;11067;48.788;9.208;2023-08-07T09:50:33;17.10;99.90
21811;DHT22;11067;48.788;9.208;2023-08-07T09:52:59;17.60;99.90
21811;DHT22;11067;48.788;9.208;2023-08-07T09:55:25;17.70;99.90
21811;DHT22;11067;48.788;9.208;2023-08-07T09:57:51;17.60;99.90
21811;DHT22;11067;48.788;9.208;2023-08-07T10:00:17;17.90;99.90
21811;DHT22;11067;48.788;9.208;2023-08-07T10:02:46;17.80;99.90
21811;DHT22;11067;48.788;9.208;2023-08-07T10:05:13;17.80;99.90
21811;DHT22;11067;48.788;9.208;2023-08-07T10:07:40;17.60;99.90
21811;DHT22;11067;48.788;9.208;2023-08-07T10:10:09;17.70;99.90
21811;DHT22;11067;48.788;9.208;2023-08-07T10:12:36;17.70;99.90
21811;DHT22;11067;48.788;9.208;2023-08-07T10:15:03;17.90;99.90
21811;DHT22;11067;48.788;9.208;2023-08-07T10:17:30;18.10;99.90
21811;DHT22;11067;48.788;9.208;2023-08-07T10:19:56;17.80;99.90
21811;DHT22;11067;48.788;9.208;2023-08-07T10:22:28;18.00;99.90
21811;DHT22;11067;48.788;9.208;2023-08-07T10:24:57;18.50;99.90
21811;DHT22;11067;48.788;9.208;2023-08-07T10:27:25;18.40;99.90
21811;DHT22;11067;48.788;9.208;2023-08-07T10:29:52;18.40;99.90
21811;DHT22;11067;48.788;9.208;2023-08-07T10:32:20;18.70;99.90
21811;DHT22;11067;48.788;9.208;2023-08-07T10:34:49;18.20;99.90
21811;DHT22;11067;48.788;9.208;2023-08-07T10:37:40;18.20;99.90
21811;DHT22;11067;48.788;9.208;2023-08-07T10:40:06;18.00;99.90
21811;DHT22;11067;48.788;9.208;2023-08-07T10:42:57;18.10;99.90
21811;DHT22;11067;48.788;9.208;2023-08-07T10:45:24;18.20;99.90
21811;DHT22;11067;48.788;9.208;2023-08-07T10:50:35;17.80;99.90
21811;DHT22;11067;48.788;9.208;2023-08-07T10:53:04;17.40;99.90
21811;DHT22;11067;48.788;9.208;2023-08-07T10:56:03;17.60;99.90
21811;DHT22;11067;48.788;9.208;2023-08-07T10:58:31;17.70;99.90
21811;DHT22;11067;48.788;9.208;2023-08-07T11:01:20;17.80;99.90
21811;DHT22;11067;48.788;9.208;2023-08-07T11:03:52;18.00;99.90
21811;DHT22;11067;48.788;9.208;2023-08-07T11:06:23;17.90;99.90
21811;DHT22;11067;48.788;9.208;2023-08-07T11:08:49;18.20;99.90
21811;DHT22;11067;48.788;9.208;2023-08-07T11:11:15;18.30;99.90
21811;DHT22;11067;48.788;9.208;2023-08-07T11:13:41;18.10;99.90
21811;DHT22;11067;48.788;9.208;2023-08-07T11:16:07;18.10;99.90
21811;DHT22;11067;48.788;9.208;2023-08-07T11:18:32;18.40;99.90
21811;DHT22;11067;48.788;9.208;2023-08-07T11:20:58;18.00;99.90
21811;DHT22;11067;48.788;9.208;2023-08-07T11:23:25;17.70;99.90
21811;DHT22;11067;48.788;9.208;2023-08-07T11:25:51;18.00;99.90
21811;DHT22;11067;48.788;9.208;2023-08-07T11:28:21;17.70;99.90
21811;DHT22;11067;48.788;9.208;2023-08-07T11:30:49;17.70;99.90
21811;DHT22;11067;48.788;9.208;2023-08-07T11:33:15;17.70;99.90
21811;DHT22;11067;48.788;9.208;2023-08-07T11:35:42;17.60;99.90
21811;DHT22;11067;48.788;9.208;2023-08-07T11:38:07;17.60;99.90
21811;DHT22;11067;48.788;9.208;2023-08-07T11:40:34;17.40;99.90
21811;DHT22;11067;48.788;9.208;2023-08-07T11:42:59;17.50;99.90
21811;DHT22;11067;48.788;9.208;2023-08-07T11:45:25;17.50;99.90
21811;DHT22;11067;48.788;9.208;2023-08-07T11:47:51;17.50;99.90
21811;DHT22;11067;48.788;9.208;2023-08-07T11:50:16;17.40;99.90
21811;DHT22;11067;48.788;9.208;2023-08-07T11:52:42;17.40;99.90
21811;DHT22;11067;48.788;9.208;2023-08-07T11:55:08;17.50;99.90
21811;DHT22;11067;48.788;9.208;2023-08-07T11:57:37;17.40;99.90
21811;DHT22;11067;48.788;9.208;2023-08-07T12:00:06;17.40;99.90
21811;DHT22;11067;48.788;9.208;2023-08-07T12:02:35;17.30;99.90
21811;DHT22;11067;48.788;9.208;2023-08-07T12:05:01;17.30;99.90
21811;DHT22;11067;48.788;9.208;2023-08-07T12:07:27;17.20;99.90
21811;DHT22;11067;48.788;9.208;2023-08-07T12:09:53;17.40;99.90
21811;DHT22;11067;48.788;9.208;2023-08-07T12:12:20;17.40;99.90
21811;DHT22;11067;48.788;9.208;2023-08-07T12:14:45;17.50;99.90
21811;DHT22;11067;48.788;9.208;2023-08-07T12:17:11;17.70;99.90
21811;DHT22;11067;48.788;9.208;2023-08-07T12:19:41;17.50;99.90
21811;DHT22;11067;48.788;9.208;2023-08-07T12:22:10;17.60;99.90
21811;DHT22;11067;48.788;9.208;2023-08-07T12:24:36;17.30;99.90
21811;DHT22;11067;48.788;9.208;2023-08-07T12:27:03;17.80;99.90
21811;DHT22;11067;48.788;9.208;2023-08-07T12:29:29;17.70;99.90
21811;DHT22;11067;48.788;9.208;2023-08-07T12:31:55;17.80;99.90
21811;DHT22;11067;48.788;9.208;2023-08-07T12:34:21;18.20;99.90
21811;DHT22;11067;48.788;9.208;2023-08-07T12:36:46;18.10;99.90
21811;DHT22;11067;48.788;9.208;2023-08-07T12:39:12;18.20;99.90
21811;DHT22;11067;48.788;9.208;2023-08-07T12:41:38;18.00;99.90
21811;DHT22;11067;48.788;9.208;2023-08-07T12:44:04;17.80;99.90
21811;DHT22;11067;48.788;9.208;2023-08-07T12:46:29;18.00;99.90
21811;DHT22;11067;48.788;9.208;2023-08-07T12:48:55;18.20;99.90
21811;DHT22;11067;48.788;9.208;2023-08-07T12:51:20;18.40;99.90
21811;DHT22;11067;48.788;9.208;2023-08-07T12:53:46;18.50;99.90
21811;DHT22;11067;48.788;9.208;2023-08-07T12:56:12;18.50;99.90
21811;DHT22;11067;48.788;9.208;2023-08-07T12:58:38;18.20;99.90
21811;DHT22;11067;48.788;9.208;2023-08-07T13:01:04;17.70;99.90
21811;DHT22;11067;48.788;9.208;2023-08-07T13:03:30;18.10;99.90
21811;DHT22;11067;48.788;9.208;2023-08-07T13:05:55;18.20;99.90
21811;DHT22;11067;48.788;9.208;2023-08-07T13:08:20;18.20;99.90
21811;DHT22;11067;48.788;9.208;2023-08-07T13:10:46;18.40;99.90
21811;DHT22;11067;48.788;9.208;2023-08-07T13:13:12;18.40;99.90
21811;DHT22;11067;48.788;9.208;2023-08-07T13:15:37;18.10;99.90
21811;DHT22;11067;48.788;9.208;2023-08-07T13:18:03;18.30;99.90
21811;DHT22;11067;48.788;9.208;2023-08-07T13:20:28;18.50;99.90
21811;DHT22;11067;48.788;9.208;2023-08-07T13:22:58;18.20;99.90
21811;DHT22;11067;48.788;9.208;2023-08-07T13:25:24;17.80;99.90
21811;DHT22;11067;48.788;9.208;2023-08-07T13:27:50;17.80;99.90
21811;DHT22;11067;48.788;9.208;2023-08-07T13:30:15;17.70;99.90
21811;DHT22;11067;48.788;9.208;2023-08-07T13:32:41;17.80;99.90
21811;DHT22;11067;48.788;9.208;2023-08-07T13:35:06;18.00;99.90
21811;DHT22;11067;48.788;9.208;2023-08-07T13:37:32;18.00;99.90
21811;DHT22;11067;48.788;9.208;2023-08-07T13:39:58;18.30;99.90
21811;DHT22;11067;48.788;9.208;2023-08-07T13:42:24;18.50;99.90
21811;DHT22;11067;48.788;9.208;2023-08-07T13:44:51;18.70;99.90
21811;DHT22;11067;48.788;9.208;2023-08-07T13:47:17;19.00;99.90
21811;DHT22;11067;48.788;9.208;2023-08-07T13:49:43;19.10;99.90
21811;DHT22;11067;48.788;9.208;2023-08-07T13:52:09;19.40;99.90
21811;DHT22;11067;48.788;9.208;2023-08-07T13:54:34;19.40;99.90
21811;DHT22;11067;48.788;9.208;2023-08-07T13:57:00;19.50;99.90
21811;DHT22;11067;48.788;9.208;2023-08-07T13:59:25;19.20;99.90
21811;DHT22;11067;48.788;9.208;2023-08-07T14:01:51;19.40;99.90
21811;DHT22;11067;48.788;9.208;2023-08-07T14:04:17;19.30;99.90
21811;DHT22;11067;48.788;9.208;2023-08-07T14:06:43;19.40;99.90
21811;DHT22;11067;48.788;9.208;2023-08-07T14:09:09;19.00;99.90
21811;DHT22;11067;48.788;9.208;2023-08-07T14:11:35;18.90;99.90
21811;DHT22;11067;48.788;9.208;2023-08-07T14:14:01;18.90;99.90
21811;DHT22;11067;48.788;9.208;2023-08-07T14:16:27;18.80;99.90
21811;DHT22;11067;48.788;9.208;2023-08-07T14:18:52;19.00;99.90
21811;DHT22;11067;48.788;9.208;2023-08-07T14:21:18;19.30;99.90
21811;DHT22;11067;48.788;9.208;2023-08-07T14:23:44;19.40;99.90
21811;DHT22;11067;48.788;9.208;2023-08-07T14:26:11;19.80;99.90
21811;DHT22;11067;48.788;9.208;2023-08-07T14:28:37;19.50;99.90
21811;DHT22;11067;48.788;9.208;2023-08-07T14:31:06;19.10;99.90
21811;DHT22;11067;48.788;9.208;2023-08-07T14:33:33;19.10;99.90
21811;DHT22;11067;48.788;9.208;2023-08-07T14:35:58;19.00;99.90
21811;DHT22;11067;48.788;9.208;2023-08-07T14:38:25;19.00;99.90
21811;DHT22;11067;48.788;9.208;2023-08-07T14:40:50;19.10;99.90
21811;DHT22;11067;48.788;9.208;2023-08-07T14:43:16;19.10;99.90
21811;DHT22;11067;48.788;9.208;2023-08-07T14:45:41;19.20;99.90
21811;DHT22;11067;48.788;9.208;2023-08-07T14:48:07;19.20;99.90
21811;DHT22;11067;48.788;9.208;2023-08-07T14:50:32;19.20;99.90
21811;DHT22;11067;48.788;9.208;2023-08-07T14:52:58;19.20;99.90
21811;DHT22;11067;48.788;9.208;2023-08-07T14:55:24;19.50;99.90
21811;DHT22;11067;48.788;9.208;2023-08-07T14:57:49;19.60;99.90
21811;DHT22;11067;48.788;9.208;2023-08-07T15:00:15;20.00;99.90
21811;DHT22;11067;48.788;9.208;2023-08-07T15:02:42;20.00;99.90
21811;DHT22;11067;48.788;9.208;2023-08-07T15:05:13;20.00;99.90
21811;DHT22;11067;48.788;9.208;2023-08-07T15:07:38;20.00;99.90
21811;DHT22;11067;48.788;9.208;2023-08-07T15:10:04;19.90;99.90
21811;DHT22;11067;48.788;9.208;2023-08-07T15:12:29;19.70;99.90
21811;DHT22;11067;48.788;9.208;2023-08-07T15:14:55;19.40;99.90
21811;DHT22;11067;48.788;9.208;2023-08-07T15:17:21;19.40;99.90
21811;DHT22;11067;48.788;9.208;2023-08-07T15:19:46;19.20;99.90
21811;DHT22;11067;48.788;9.208;2023-08-07T15:22:12;19.10;99.90
21811;DHT22;11067;48.788;9.208;2023-08-07T15:24:37;19.10;99.90
21811;DHT22;11067;48.788;9.208;2023-08-07T15:27:03;18.90;99.90
21811;DHT22;11067;48.788;9.208;2023-08-07T15:29:28;18.80;99.90
21811;DHT22;11067;48.788;9.208;2023-08-07T15:31:54;18.80;99.90
21811;DHT22;11067;48.788;9.208;2023-08-07T15:34:19;18.80;99.90